Time;durP1;ratioP1;P1;durP2;ratioP2;P2;SDS_P1;SDS_P2;PMS_P1;PMS_P2;Temp;Humidity;BMP_temperature;BMP_pressure;BME280_temperature;BME280_humidity;BME280_pressure;Samples;Min_cycle;Max_cycle;Signal;HPM_P1;HPM_P2
2021/08/15 04:46:45;;;;;;;15.28;11.03;;;;;;;18.67;100.00;99302.14;1798355;79;23160;-68
2021/08/15 04:49:16;;;;;;;20.40;10.95;;;;;;;18.73;100.00;99303.25;1759334;80;21553;-67
2021/08/15 04:51:46;;;;;;;15.00;11.08;;;;;;;18.82;100.00;99310.92;1758341;80;21085;-67
2021/08/15 04:54:15;;;;;;;24.43;10.63;;;;;;;18.90;100.00;99307.50;1761294;80;20951;-68
2021/08/15 04:56:44;;;;;;;20.92;10.90;;;;;;;19.01;100.00;99309.80;1785126;79;20915;-68
2021/08/15 04:59:12;;;;;;;15.98;11.15;;;;;;;19.12;100.00;99300.91;1785108;79;21414;-68
2021/08/15 05:01:41;;;;;;;23.20;10.85;;;;;;;19.24;100.00;99307.58;1781122;79;21402;-69
2021/08/15 05:04:09;;;;;;;26.55;11.35;;;;;;;19.34;100.00;99304.95;1779279;79;21898;-68
2021/08/15 05:06:38;;;;;;;18.25;11.78;;;;;;;19.42;100.00;99308.23;1774316;80;21410;-67
2021/08/15 05:09:07;;;;;;;21.85;11.60;;;;;;;19.50;100.00;99308.33;1758446;80;20940;-67
2021/08/15 05:11:37;;;;;;;24.80;11.60;;;;;;;19.60;100.00;99307.53;1779297;79;21442;-67
2021/08/15 05:14:09;;;;;;;17.02;11.55;;;;;;;19.69;100.00;99313.84;1779151;79;20875;-66
2021/08/15 05:16:37;;;;;;;17.43;12.20;;;;;;;19.78;100.00;99306.78;1775300;79;20915;-67
2021/08/15 05:19:06;;;;;;;15.68;11.78;;;;;;;19.88;100.00;99311.31;1758171;80;20928;-67
2021/08/15 05:21:35;;;;;;;21.12;11.50;;;;;;;19.97;100.00;99312.73;1762582;79;21453;-67
2021/08/15 05:24:06;;;;;;;27.22;9.30;;;;;;;20.02;100.00;99304.91;1745466;80;21585;-67
2021/08/15 05:26:34;;;;;;;16.10;8.48;;;;;;;20.08;100.00;99303.31;1778291;79;21424;-67
2021/08/15 05:29:05;;;;;;;12.10;8.38;;;;;;;20.13;100.00;99293.28;1728101;81;21826;-67
2021/08/15 05:31:32;;;;;;;13.18;8.90;;;;;;;20.21;100.00;99294.76;1728387;81;21022;-69
2021/08/15 05:34:00;;;;;;;16.52;9.53;;;;;;;20.28;100.00;99291.75;1728068;82;21041;-68
2021/08/15 05:36:28;;;;;;;22.17;9.58;;;;;;;20.35;100.00;99295.06;1753016;80;21499;-68
2021/08/15 05:38:56;;;;;;;37.63;11.53;;;;;;;20.42;100.00;99301.45;1720321;82;21152;-69
2021/08/15 05:41:24;;;;;;;17.12;9.75;;;;;;;20.47;100.00;99293.22;1708728;82;21134;-68
2021/08/15 05:43:53;;;;;;;17.02;9.43;;;;;;;20.55;100.00;99296.90;1712074;82;20895;-67
2021/08/15 05:46:23;;;;;;;12.90;8.53;;;;;;;20.62;100.00;99296.55;1698083;83;21487;-67
2021/08/15 05:48:51;;;;;;;12.68;8.65;;;;;;;20.69;100.00;99295.81;1700199;82;20979;-67
2021/08/15 05:51:20;;;;;;;15.45;8.08;;;;;;;20.78;100.00;99298.08;1698343;83;20952;-66
2021/08/15 05:53:49;;;;;;;16.32;8.95;;;;;;;20.87;100.00;99295.48;1710006;82;21128;-66
2021/08/15 05:56:17;;;;;;;12.43;8.55;;;;;;;20.96;100.00;99289.69;1757963;80;20953;-61
2021/08/15 05:58:46;;;;;;;16.20;9.83;;;;;;;21.07;100.00;99295.42;1752502;79;20931;-66
2021/08/15 06:01:13;;;;;;;14.78;8.20;;;;;;;21.19;100.00;99298.00;1773460;81;21382;-63
2021/08/15 06:03:42;;;;;;;11.03;8.60;;;;;;;21.34;100.00;99295.53;1752808;81;20845;-63
2021/08/15 06:06:09;;;;;;;13.40;8.23;;;;;;;21.52;100.00;99298.27;1745758;80;21140;-65
2021/08/15 06:08:37;;;;;;;17.75;10.13;;;;;;;21.67;100.00;99292.16;1744571;80;20916;-64
2021/08/15 06:11:05;;;;;;;12.98;9.75;;;;;;;21.83;100.00;99297.20;1744811;82;21510;-64
2021/08/15 06:13:34;;;;;;;17.05;10.70;;;;;;;21.97;100.00;99299.19;1739680;81;21054;-63
2021/08/15 06:16:02;;;;;;;16.52;10.35;;;;;;;22.10;100.00;99292.28;1742453;82;21423;-63
2021/08/15 06:18:30;;;;;;;13.13;10.30;;;;;;;22.21;100.00;99295.30;1745907;80;21166;-62
2021/08/15 06:20:59;;;;;;;18.50;10.88;;;;;;;22.33;100.00;99283.08;1744710;80;20932;-63
2021/08/15 06:23:28;;;;;;;28.27;11.60;;;;;;;22.47;100.00;99288.59;1744400;80;20942;-63
2021/08/15 06:25:59;;;;;;;15.48;9.98;;;;;;;22.58;100.00;99286.69;1740704;80;21523;-66
2021/08/15 06:28:27;;;;;;;13.58;9.33;;;;;;;22.70;100.00;99288.72;1744699;80;21026;-63
2021/08/15 06:30:58;;;;;;;16.65;10.38;;;;;;;22.84;100.00;99290.73;1746213;80;21129;-58
2021/08/15 06:33:28;;;;;;;13.45;9.08;;;;;;;22.98;100.00;99287.30;1743546;80;21526;-66
2021/08/15 06:35:58;;;;;;;16.35;9.25;;;;;;;23.14;100.00;99293.09;1744546;80;20988;-67
2021/08/15 06:38:26;;;;;;;19.52;10.32;;;;;;;23.30;100.00;99290.45;1742065;80;20981;-66
2021/08/15 06:40:56;;;;;;;23.32;14.58;;;;;;;23.47;100.00;99290.37;1742180;81;20942;-66
2021/08/15 06:43:26;;;;;;;19.62;13.83;;;;;;;23.64;100.00;99289.92;1742549;80;21826;-67
2021/08/15 06:45:54;;;;;;;13.62;8.85;;;;;;;23.77;100.00;99279.73;1747171;80;20984;-67
2021/08/15 06:48:24;;;;;;;10.90;7.87;;;;;;;23.90;100.00;99274.97;1749101;82;20954;-67
2021/08/15 06:50:58;;;;;;;12.20;6.70;;;;;;;24.01;100.00;99271.16;1752412;80;21090;-67
2021/08/15 06:53:27;;;;;;;10.45;5.75;;;;;;;24.12;100.00;99274.09;1749545;80;20921;-67
2021/08/15 06:56:27;;;;;;;8.25;4.85;;;;;;;24.23;100.00;99266.27;1751825;80;21088;-68
2021/08/15 06:59:00;;;;;;;9.28;4.58;;;;;;;24.31;100.00;99266.70;1751785;80;21498;-68
2021/08/15 07:01:30;;;;;;;9.90;4.80;;;;;;;24.44;100.00;99270.87;1713173;82;21025;-68
2021/08/15 07:03:59;;;;;;;10.03;5.35;;;;;;;24.53;100.00;99273.00;1707884;82;21073;-68
2021/08/15 07:06:41;;;;;;;7.92;4.70;;;;;;;24.60;100.00;99271.69;1709323;82;21572;-69
2021/08/15 07:09:14;;;;;;;8.45;4.60;;;;;;;24.67;100.00;99272.18;1709911;82;20968;-67
2021/08/15 07:11:42;;;;;;;9.98;4.60;;;;;;;24.75;100.00;99268.53;1708249;82;21080;-68
2021/08/15 07:14:12;;;;;;;6.70;4.08;;;;;;;24.85;100.00;99272.38;1709535;82;21046;-68
2021/08/15 07:16:43;;;;;;;7.63;4.40;;;;;;;24.94;100.00;99277.20;1710512;82;21025;-67
2021/08/15 07:19:13;;;;;;;5.00;4.05;;;;;;;25.06;100.00;99275.59;1707117;83;21078;-68
2021/08/15 07:21:44;;;;;;;6.90;3.95;;;;;;;25.16;100.00;99280.83;1710432;82;21783;-67
2021/08/15 07:24:15;;;;;;;10.50;4.35;;;;;;;25.31;100.00;99280.32;1706760;82;21530;-67
2021/08/15 07:26:45;;;;;;;7.47;3.95;;;;;;;25.47;100.00;99286.46;1710780;82;20988;-67
2021/08/15 07:29:14;;;;;;;7.95;4.60;;;;;;;25.61;100.00;99285.11;1704217;82;21604;-67
2021/08/15 07:31:46;;;;;;;7.75;4.35;;;;;;;25.73;100.00;99280.77;1710898;82;20987;-67
2021/08/15 07:34:15;;;;;;;9.03;4.25;;;;;;;25.82;100.00;99272.53;1705450;82;21084;-67
2021/08/15 07:36:43;;;;;;;5.62;4.22;;;;;;;25.92;100.00;99277.22;1710840;82;21523;-67
2021/08/15 07:39:10;;;;;;;7.90;3.98;;;;;;;25.97;100.00;99279.13;1710211;82;21538;-67
2021/08/15 07:41:39;;;;;;;9.13;4.62;;;;;;;26.04;100.00;99273.72;1709404;82;21408;-65
2021/08/15 07:44:07;;;;;;;8.93;4.12;;;;;;;26.14;100.00;99268.55;1710420;82;20959;-66
2021/08/15 07:46:36;;;;;;;8.25;3.90;;;;;;;26.25;100.00;99267.34;1704390;82;21183;-66
2021/08/15 07:49:08;;;;;;;7.05;3.95;;;;;;;26.35;100.00;99266.25;1701092;83;20997;-66
2021/08/15 07:51:41;;;;;;;7.17;3.87;;;;;;;26.39;96.46;99268.25;1699620;82;20948;-66
2021/08/15 07:54:11;;;;;;;5.25;3.83;;;;;;;26.44;93.12;99264.75;1700310;82;21019;-66
2021/08/15 07:56:39;;;;;;;5.60;3.70;;;;;;;26.50;93.05;99261.64;1702206;83;20906;-67
2021/08/15 07:59:10;;;;;;;7.37;4.05;;;;;;;26.57;89.73;99259.76;1701997;82;21663;-67
2021/08/15 08:01:42;;;;;;;7.75;3.87;;;;;;;26.65;88.55;99253.32;1702460;82;20990;-67
2021/08/15 08:04:13;;;;;;;6.42;3.85;;;;;;;26.78;86.06;99260.57;1700807;82;21533;-67
2021/08/15 08:06:45;;;;;;;5.58;3.58;;;;;;;26.86;85.34;99254.13;1701493;82;21042;-68
2021/08/15 08:09:15;;;;;;;8.58;4.00;;;;;;;26.92;82.45;99246.92;1701579;82;21059;-67
2021/08/15 08:11:44;;;;;;;7.78;3.30;;;;;;;27.03;85.11;99256.55;1708747;82;21162;-67
2021/08/15 08:14:12;;;;;;;9.95;3.37;;;;;;;27.11;83.15;99247.88;1687320;85;20963;-66
2021/08/15 08:16:41;;;;;;;6.42;3.52;;;;;;;27.20;83.68;99253.98;1688096;83;21434;-66
2021/08/15 08:19:11;;;;;;;7.83;3.12;;;;;;;27.31;80.28;99248.64;1687537;83;20955;-66
2021/08/15 08:21:40;;;;;;;6.08;3.35;;;;;;;27.47;83.63;99242.98;1687223;85;21505;-67
2021/08/15 08:24:08;;;;;;;4.55;3.50;;;;;;;27.63;76.01;99239.55;1660888;85;21138;-66
2021/08/15 08:26:36;;;;;;;4.87;3.20;;;;;;;27.79;73.62;99235.19;1706959;82;20994;-67
2021/08/15 08:29:04;;;;;;;5.87;3.35;;;;;;;27.93;73.28;99241.82;1708584;82;21582;-66
2021/08/15 08:31:32;;;;;;;5.08;3.35;;;;;;;28.07;72.97;99238.05;1702667;82;21014;-67
2021/08/15 08:33:59;;;;;;;7.42;3.37;;;;;;;28.25;75.36;99231.73;1699736;82;21066;-67
2021/08/15 08:36:28;;;;;;;7.22;3.77;;;;;;;28.43;74.64;99233.05;1690346;83;21212;-70
2021/08/15 08:38:57;;;;;;;6.92;3.35;;;;;;;28.56;72.99;99230.23;1711287;82;21102;-69
2021/08/15 08:41:27;;;;;;;9.15;3.77;;;;;;;28.64;70.29;99231.35;1705371;82;21455;-68
2021/08/15 08:44:01;;;;;;;9.10;3.80;;;;;;;28.70;68.87;99231.36;1753175;80;21558;-69
2021/08/15 08:46:30;;;;;;;8.03;4.20;;;;;;;28.77;66.17;99225.81;1750338;80;20980;-68
2021/08/15 08:49:00;;;;;;;6.35;3.77;;;;;;;28.86;63.99;99229.70;1743216;80;21136;-69
2021/08/15 08:51:32;;;;;;;5.97;4.08;;;;;;;28.97;64.21;99233.78;1743695;81;22086;-69
2021/08/15 08:54:15;;;;;;;10.32;4.87;;;;;;;29.04;59.82;99225.51;1743763;81;20976;-71
2021/08/15 08:56:43;;;;;;;16.52;5.25;;;;;;;29.08;58.58;99222.91;1740986;81;20964;-70
2021/08/15 08:59:12;;;;;;;7.70;4.20;;;;;;;29.19;60.05;99222.04;1744415;81;20859;-70
2021/08/15 09:02:04;;;;;;;11.60;4.60;;;;;;;29.27;60.56;99214.98;1740283;81;21185;-71
2021/08/15 09:04:34;;;;;;;10.25;4.40;;;;;;;29.37;60.67;99217.84;1761434;81;20859;-71
2021/08/15 09:07:15;;;;;;;7.80;4.77;;;;;;;29.51;62.92;99212.16;1757308;81;20934;-71
2021/08/15 09:09:57;;;;;;;44.05;7.20;;;;;;;29.62;61.51;99205.33;1758096;81;21445;-71
2021/08/15 09:12:43;;;;;;;8.40;5.20;;;;;;;29.65;60.21;99205.08;1760844;81;20891;-71
2021/08/15 09:15:21;;;;;;;8.03;4.65;;;;;;;29.62;57.83;99200.39;1742871;80;21152;-71
2021/08/15 09:17:49;;;;;;;10.03;4.20;;;;;;;29.64;58.38;99199.27;1757995;80;21015;-72
2021/08/15 09:20:22;;;;;;;8.48;4.30;;;;;;;29.66;57.95;99189.62;1754749;80;20954;-71
2021/08/15 09:22:50;;;;;;;14.43;4.42;;;;;;;29.68;58.99;99188.50;1754482;81;20938;-71
2021/08/15 09:25:20;;;;;;;6.35;4.45;;;;;;;29.74;58.15;99185.77;1760732;81;20999;-70
2021/08/15 09:27:57;;;;;;;7.62;4.85;;;;;;;29.73;56.35;99179.95;1754900;81;20911;-71
2021/08/15 09:30:32;;;;;;;9.88;5.42;;;;;;;29.80;58.50;99178.48;1754562;81;20934;-70
2021/08/15 09:33:04;;;;;;;10.65;4.55;;;;;;;29.90;56.54;99178.56;1753283;81;21474;-70
2021/08/15 09:35:39;;;;;;;9.38;4.22;;;;;;;30.00;56.20;99180.36;1754953;81;20939;-71
2021/08/15 09:38:12;;;;;;;20.35;4.72;;;;;;;30.00;54.90;99173.56;1754740;81;21034;-71
2021/08/15 09:40:52;;;;;;;10.72;4.22;;;;;;;30.08;54.25;99177.02;1755319;81;21134;-70
2021/08/15 09:43:23;;;;;;;8.50;3.87;;;;;;;30.16;54.66;99167.69;1754202;81;21537;-70
2021/08/15 09:45:59;;;;;;;7.10;4.20;;;;;;;30.31;54.39;99168.25;1755920;81;20911;-70
2021/08/15 09:48:33;;;;;;;9.75;4.10;;;;;;;30.41;53.08;99158.78;1755979;80;21009;-70
2021/08/15 09:51:19;;;;;;;8.55;4.40;;;;;;;30.53;53.24;99164.50;1748788;81;20971;-71
2021/08/15 09:53:57;;;;;;;7.05;3.90;;;;;;;30.69;56.29;99163.05;1755794;81;21124;-71
2021/08/15 09:56:38;;;;;;;58.35;6.50;;;;;;;30.81;53.90;99158.39;1755542;81;21651;-71
2021/08/15 09:59:18;;;;;;;6.33;3.80;;;;;;;30.93;51.44;99161.88;1757208;81;20951;-71
2021/08/15 10:01:50;;;;;;;8.38;3.92;;;;;;;31.00;49.13;99161.69;1757312;81;21469;-70
2021/08/15 10:04:18;;;;;;;6.30;3.72;;;;;;;31.08;51.72;99156.41;1753441;81;21541;-69
2021/08/15 10:06:50;;;;;;;7.00;4.75;;;;;;;31.14;51.74;99156.34;1752473;81;20970;-70
2021/08/15 10:09:22;;;;;;;8.70;4.15;;;;;;;31.22;53.09;99151.12;1753014;81;21477;-72
2021/08/15 10:11:51;;;;;;;19.92;16.95;;;;;;;31.27;51.02;99155.16;1752736;82;20943;-71
2021/08/15 10:14:19;;;;;;;6.95;5.22;;;;;;;31.33;50.40;99153.73;1752817;82;21540;-71
2021/08/15 10:16:57;;;;;;;5.85;4.20;;;;;;;31.40;49.00;99152.16;1752547;81;20966;-71
2021/08/15 10:19:45;;;;;;;8.05;3.87;;;;;;;31.42;48.81;99153.38;1752594;81;22037;-71
2021/08/15 10:22:31;;;;;;;6.95;3.60;;;;;;;31.35;46.23;99147.63;1752647;81;20863;-71
2021/08/15 10:25:04;;;;;;;4.87;3.83;;;;;;;31.23;46.17;99141.45;1761129;81;20926;-70
2021/08/15 10:27:46;;;;;;;7.78;3.72;;;;;;;31.17;45.74;99133.80;1748847;81;21089;-70
2021/08/15 10:30:33;;;;;;;5.67;3.60;;;;;;;31.18;45.24;99135.52;1746426;81;20879;-70
2021/08/15 10:33:15;;;;;;;7.08;5.00;;;;;;;31.14;45.41;99126.38;1745640;81;21983;-69
2021/08/15 10:35:44;;;;;;;9.08;4.62;;;;;;;31.29;47.51;99133.20;1746330;81;21462;-70
2021/08/15 10:38:19;;;;;;;6.87;4.10;;;;;;;31.44;47.24;99123.61;1717295;82;20929;-68
2021/08/15 10:40:48;;;;;;;9.78;4.22;;;;;;;31.63;47.18;99124.13;1746654;81;21540;-71
2021/08/15 10:43:31;;;;;;;7.78;3.52;;;;;;;31.75;45.03;99123.54;1746222;81;21524;-72
2021/08/15 10:46:18;;;;;;;9.25;4.45;;;;;;;31.74;43.65;99118.59;1730893;82;21544;-73
2021/08/15 10:49:06;;;;;;;20.35;4.50;;;;;;;31.70;43.41;99120.35;1730460;82;20981;-73
2021/08/15 10:51:51;;;;;;;7.35;3.62;;;;;;;31.70;43.77;99114.42;1730150;83;20970;-73
2021/08/15 10:54:34;;;;;;;9.25;3.80;;;;;;;31.62;42.77;99116.95;1730630;83;21524;-71
2021/08/15 10:57:04;;;;;;;7.65;3.80;;;;;;;31.61;43.63;99119.31;1730734;82;21608;-71
2021/08/15 10:59:42;;;;;;;5.15;4.00;;;;;;;31.58;42.33;99112.78;1730764;82;21536;-72
2021/08/15 11:02:17;;;;;;;7.08;4.12;;;;;;;31.59;41.63;99113.14;1730526;82;20947;-72
2021/08/15 11:04:58;;;;;;;6.72;4.22;;;;;;;31.57;41.27;99106.47;1727138;82;20911;-72
2021/08/15 11:07:39;;;;;;;6.95;4.15;;;;;;;31.63;41.55;99109.98;1727738;82;21467;-72
2021/08/15 11:10:12;;;;;;;5.65;3.90;;;;;;;31.75;41.65;99107.17;1727850;82;20883;-73
2021/08/15 11:13:16;;;;;;;6.97;3.92;;;;;;;31.82;40.71;99108.31;1727741;83;21454;-71
2021/08/15 11:15:45;;;;;;;5.80;4.37;;;;;;;31.88;41.82;99108.59;1727592;82;20922;-72
2021/08/15 11:18:14;;;;;;;6.15;3.65;;;;;;;32.02;41.08;99105.05;1727749;83;21306;-73
2021/08/15 11:20:54;;;;;;;4.97;3.45;;;;;;;32.15;42.49;99098.78;1728043;82;20894;-72
2021/08/15 11:23:21;;;;;;;9.80;3.90;;;;;;;32.30;42.05;99105.55;1727087;82;20985;-73
2021/08/15 11:25:48;;;;;;;7.60;4.03;;;;;;;32.38;41.22;99097.98;1727713;82;21097;-73
2021/08/15 11:28:16;;;;;;;6.70;4.15;;;;;;;32.39;39.96;99099.20;1728051;82;20894;-73
2021/08/15 11:30:44;;;;;;;7.65;4.62;;;;;;;32.41;39.41;99100.42;1727979;83;20898;-72
2021/08/15 11:33:12;;;;;;;7.92;4.37;;;;;;;32.45;39.86;99091.78;1727731;82;20875;-71
2021/08/15 11:35:44;;;;;;;6.97;4.20;;;;;;;32.59;39.62;99098.62;1723308;83;21507;-71
2021/08/15 11:38:14;;;;;;;9.63;4.00;;;;;;;32.66;38.31;99091.58;1728023;82;21129;-72
2021/08/15 11:40:48;;;;;;;5.45;4.12;;;;;;;32.63;37.11;99082.28;1727671;82;20890;-72
2021/08/15 11:43:21;;;;;;;6.70;4.20;;;;;;;32.59;37.31;99078.64;1727713;82;20977;-72
2021/08/15 11:45:58;;;;;;;5.60;4.20;;;;;;;32.61;37.37;99073.89;1726290;83;21536;-72
2021/08/15 11:48:24;;;;;;;7.15;4.25;;;;;;;32.69;38.00;99069.42;1725102;83;20994;-73
2021/08/15 11:51:01;;;;;;;5.97;4.10;;;;;;;32.82;39.36;99075.92;1728018;83;21121;-71
2021/08/15 11:53:34;;;;;;;6.03;4.37;;;;;;;32.94;38.58;99066.51;1727766;83;20998;-71
2021/08/15 11:56:18;;;;;;;7.15;4.35;;;;;;;33.06;38.93;99059.81;1727745;83;21429;-71
2021/08/15 11:58:47;;;;;;;7.08;4.30;;;;;;;33.23;39.35;99057.28;1728152;83;21413;-71
2021/08/15 12:01:20;;;;;;;5.17;3.98;;;;;;;33.35;38.06;99055.55;1727981;82;20891;-72
2021/08/15 12:04:03;;;;;;;10.68;4.42;;;;;;;33.30;36.61;99055.16;1728490;82;21158;-70
2021/08/15 12:06:32;;;;;;;4.92;4.00;;;;;;;33.16;36.16;99052.44;1730568;83;20926;-71
2021/08/15 12:09:00;;;;;;;9.73;4.42;;;;;;;33.07;35.96;99053.33;1730553;83;20989;-71
2021/08/15 12:11:32;;;;;;;7.12;4.30;;;;;;;33.00;36.68;99050.86;1734941;81;20932;-71
2021/08/15 12:14:12;;;;;;;7.03;4.70;;;;;;;32.97;37.21;99055.78;1749989;81;20887;-70
2021/08/15 12:16:54;;;;;;;9.00;4.40;;;;;;;32.87;37.41;99055.84;1748317;81;21156;-71
2021/08/15 12:19:30;;;;;;;31.80;7.85;;;;;;;32.80;37.92;99049.27;1725277;81;20922;-72
2021/08/15 12:22:01;;;;;;;8.68;4.50;;;;;;;32.84;37.60;99052.05;1755999;81;20934;-72
2021/08/15 12:24:31;;;;;;;8.10;4.75;;;;;;;32.80;37.72;99047.39;1760836;81;20950;-73
2021/08/15 12:27:05;;;;;;;7.42;4.70;;;;;;;32.71;38.09;99044.69;1760822;81;20934;-73
2021/08/15 12:29:43;;;;;;;7.45;4.80;;;;;;;32.68;37.90;99053.19;1760523;81;21297;-72
2021/08/15 12:32:23;;;;;;;8.40;4.92;;;;;;;32.59;38.53;99048.09;1760384;81;20978;-72
2021/08/15 12:34:57;;;;;;;11.90;5.47;;;;;;;32.68;39.74;99057.28;1759765;81;20855;-71
2021/08/15 12:37:30;;;;;;;11.65;4.78;;;;;;;32.80;39.41;99054.23;1760731;81;20938;-72
2021/08/15 12:40:10;;;;;;;8.20;4.85;;;;;;;32.93;40.25;99047.03;1760839;81;20974;-72
2021/08/15 12:42:39;;;;;;;5.62;4.05;;;;;;;32.99;39.83;99046.92;1761083;81;21111;-73
2021/08/15 12:45:11;;;;;;;7.20;4.83;;;;;;;33.01;37.96;99048.98;1760667;81;21716;-72
2021/08/15 12:47:41;;;;;;;6.45;4.45;;;;;;;32.99;37.04;99042.31;1744827;81;21468;-72
2021/08/15 12:50:17;;;;;;;7.40;4.65;;;;;;;33.03;38.68;99034.66;1740282;82;20986;-72
2021/08/15 12:52:59;;;;;;;7.87;4.12;;;;;;;33.12;38.65;99038.73;1739809;81;20981;-71
2021/08/15 12:55:35;;;;;;;5.17;4.15;;;;;;;33.11;38.18;99041.58;1739846;82;21939;-70
2021/08/15 12:58:11;;;;;;;7.53;4.37;;;;;;;33.05;37.78;99032.64;1739571;82;21421;-71
2021/08/15 13:00:48;;;;;;;8.35;4.20;;;;;;;33.01;38.09;99037.55;1739699;82;20974;-70
2021/08/15 13:03:19;;;;;;;10.43;4.83;;;;;;;32.98;37.56;99032.39;1739645;81;21127;-71
2021/08/15 13:05:47;;;;;;;6.27;4.27;;;;;;;32.94;37.47;99025.52;1758392;81;20982;-72
2021/08/15 13:08:15;;;;;;;8.28;4.60;;;;;;;32.91;37.98;99029.93;1758568;81;21111;-73
2021/08/15 13:10:45;;;;;;;7.05;4.33;;;;;;;32.91;37.55;99019.50;1757668;81;21492;-71
2021/08/15 13:13:12;;;;;;;6.83;4.22;;;;;;;32.95;36.81;99021.77;1758234;81;20943;-71
2021/08/15 13:15:40;;;;;;;9.28;4.42;;;;;;;32.89;36.31;99014.70;1754544;81;20930;-71
2021/08/15 13:18:09;;;;;;;7.25;4.12;;;;;;;32.84;36.71;99017.39;1760895;81;20938;-71
2021/08/15 13:20:40;;;;;;;8.15;4.17;;;;;;;32.77;36.29;99011.30;1721840;83;21094;-71
2021/08/15 13:23:11;;;;;;;10.45;4.40;;;;;;;32.71;36.98;99011.91;1726122;82;21001;-72
2021/08/15 13:25:40;;;;;;;42.00;7.62;;;;;;;32.61;36.50;99012.45;1727631;82;20950;-71
2021/08/15 13:28:09;;;;;;;5.50;4.20;;;;;;;32.61;36.73;99008.34;1701819;83;20939;-70
2021/08/15 13:30:37;;;;;;;4.62;3.80;;;;;;;32.65;37.20;99005.19;1732724;82;21536;-71
2021/08/15 13:33:05;;;;;;;6.42;4.00;;;;;;;32.62;37.23;99012.80;1711026;82;21958;-70
2021/08/15 13:35:33;;;;;;;8.45;3.77;;;;;;;32.53;36.26;99014.57;1721356;83;20978;-70
2021/08/15 13:38:01;;;;;;;29.37;5.35;;;;;;;32.41;36.61;99009.81;1722016;83;20985;-71
2021/08/15 13:40:30;;;;;;;8.58;4.15;;;;;;;32.38;36.99;99007.39;1721770;83;21453;-72
2021/08/15 13:43:00;;;;;;;6.50;4.00;;;;;;;32.42;37.15;99006.08;1722324;83;21146;-72
2021/08/15 13:45:28;;;;;;;6.60;3.87;;;;;;;32.44;37.27;99003.20;1722379;83;21134;-71
2021/08/15 13:47:57;;;;;;;5.65;3.77;;;;;;;32.42;37.71;99002.48;1721622;83;20998;-72
2021/08/15 13:50:24;;;;;;;7.65;4.03;;;;;;;32.40;37.36;99005.38;1722454;83;20911;-71
2021/08/15 13:52:52;;;;;;;16.23;4.55;;;;;;;32.40;37.98;99006.73;1722211;82;20930;-72
2021/08/15 13:55:21;;;;;;;27.20;5.20;;;;;;;32.34;36.74;99003.25;1721810;83;21600;-72
2021/08/15 13:57:49;;;;;;;9.80;4.40;;;;;;;32.27;36.40;99004.00;1715705;83;21160;-72
2021/08/15 14:00:19;;;;;;;5.72;4.33;;;;;;;32.15;36.19;99000.53;1721044;83;21490;-72
2021/08/15 14:02:47;;;;;;;27.48;4.50;;;;;;;32.06;36.30;99005.53;1721609;83;21631;-69
2021/08/15 14:05:17;;;;;;;6.28;4.08;;;;;;;32.06;36.60;99005.02;1726958;82;20873;-72
2021/08/15 14:07:44;;;;;;;18.75;4.00;;;;;;;32.11;37.31;99005.44;1728099;82;20943;-71
2021/08/15 14:10:13;;;;;;;6.45;3.62;;;;;;;32.10;36.89;98997.39;1708626;82;21168;-72
2021/08/15 14:12:40;;;;;;;7.47;4.00;;;;;;;32.04;37.08;99002.09;1737346;81;21004;-71
2021/08/15 14:15:10;;;;;;;8.33;4.12;;;;;;;32.04;37.93;98998.86;1694428;84;21520;-71
2021/08/15 14:17:41;;;;;;;6.83;3.70;;;;;;;32.15;38.53;98988.26;1687517;84;20975;-72
2021/08/15 14:20:10;;;;;;;4.70;3.40;;;;;;;32.27;38.09;98988.48;1707967;84;20910;-71
2021/08/15 14:22:39;;;;;;;5.08;3.40;;;;;;;32.33;37.97;98989.75;1718067;83;20947;-72
2021/08/15 14:25:09;;;;;;;7.78;3.37;;;;;;;32.33;36.96;98982.42;1689715;84;21046;-72
2021/08/15 14:27:39;;;;;;;6.42;3.47;;;;;;;32.23;36.93;98982.94;1714271;83;21080;-71
2021/08/15 14:30:11;;;;;;;4.87;3.50;;;;;;;32.19;37.43;98986.98;1701939;84;20910;-71
2021/08/15 14:32:38;;;;;;;20.57;3.52;;;;;;;32.17;37.43;98979.45;1694373;84;20982;-72
2021/08/15 14:35:09;;;;;;;8.45;3.15;;;;;;;32.22;37.63;98979.34;1693669;84;21129;-73
2021/08/15 14:38:01;;;;;;;7.67;3.00;;;;;;;32.18;36.87;98979.80;1702643;81;21041;-72
2021/08/15 14:40:31;;;;;;;4.50;3.27;;;;;;;32.07;36.35;98970.41;1643569;87;21020;-72
2021/08/15 14:43:01;;;;;;;5.33;3.37;;;;;;;31.90;36.22;98968.82;1674157;85;21544;-72
2021/08/15 14:45:31;;;;;;;7.03;3.60;;;;;;;31.77;36.68;98969.66;1674765;85;21669;-65
2021/08/15 14:47:59;;;;;;;5.90;3.30;;;;;;;31.68;36.61;98967.75;1675200;85;21159;-71
2021/08/15 14:50:29;;;;;;;6.12;3.30;;;;;;;31.64;37.00;98963.09;1643656;86;21052;-72
2021/08/15 14:52:56;;;;;;;7.40;3.55;;;;;;;31.58;36.61;98962.83;1670714;85;21009;-69
2021/08/15 14:55:24;;;;;;;12.80;3.83;;;;;;;31.52;36.46;98964.27;1673144;85;21033;-71
2021/08/15 14:57:53;;;;;;;6.53;3.25;;;;;;;31.42;37.10;98955.75;1675953;85;21036;-72
2021/08/15 15:00:22;;;;;;;5.42;3.35;;;;;;;31.40;37.41;98963.22;1676490;85;21990;-72
2021/08/15 15:02:49;;;;;;;4.55;3.22;;;;;;;31.39;37.50;98961.00;1672331;85;20953;-72
2021/08/15 15:05:17;;;;;;;6.15;3.55;;;;;;;31.36;38.25;98958.56;1673406;85;21426;-72
2021/08/15 15:07:44;;;;;;;12.55;3.60;;;;;;;31.25;38.13;98959.58;1673613;85;20954;-72
2021/08/15 15:10:11;;;;;;;10.85;3.15;;;;;;;31.17;38.16;98958.55;1674589;85;21552;-72
2021/08/15 15:12:42;;;;;;;7.08;3.25;;;;;;;31.05;37.46;98954.22;1671685;85;21681;-75
2021/08/15 15:15:23;;;;;;;7.05;3.42;;;;;;;30.95;37.78;98956.45;1674254;85;21017;-72
2021/08/15 15:17:55;;;;;;;10.65;3.42;;;;;;;30.90;37.30;98954.65;1675979;85;20939;-72
2021/08/15 15:20:27;;;;;;;12.82;3.77;;;;;;;30.84;37.92;98953.86;1675113;85;20998;-74
2021/08/15 15:22:56;;;;;;;9.73;3.30;;;;;;;30.80;38.01;98954.28;1674512;85;20954;-71
2021/08/15 15:25:32;;;;;;;8.55;3.90;;;;;;;30.76;37.95;98950.98;1675523;85;21580;-74
2021/08/15 15:28:00;;;;;;;13.55;3.72;;;;;;;30.71;38.54;98951.88;1645711;85;21156;-73
2021/08/15 15:30:32;;;;;;;25.48;3.87;;;;;;;30.61;39.08;98950.50;1674912;85;21164;-72
2021/08/15 15:33:00;;;;;;;26.75;4.92;;;;;;;30.54;39.71;98952.53;1674645;85;21084;-75
2021/08/15 15:35:35;;;;;;;6.15;3.55;;;;;;;30.46;39.85;98951.88;1675004;85;21551;-75
2021/08/15 15:38:06;;;;;;;17.73;4.03;;;;;;;30.39;40.21;98944.77;1674508;85;20995;-70
2021/08/15 15:40:34;;;;;;;24.20;4.50;;;;;;;30.34;41.25;98941.61;1672593;84;20997;-70
2021/08/15 15:43:09;;;;;;;11.78;4.05;;;;;;;30.28;41.45;98948.11;1700388;83;21564;-72
2021/08/15 15:45:42;;;;;;;13.15;4.17;;;;;;;30.21;41.21;98949.63;1698992;84;20887;-69
2021/08/15 15:48:12;;;;;;;12.70;4.03;;;;;;;30.13;41.13;98944.88;1700568;84;21022;-70
2021/08/15 15:50:42;;;;;;;11.93;4.00;;;;;;;30.10;41.21;98949.23;1700276;83;21751;-69
2021/08/15 15:53:10;;;;;;;13.53;4.10;;;;;;;30.06;41.82;98954.09;1701324;84;20973;-70
2021/08/15 15:55:39;;;;;;;19.00;4.55;;;;;;;30.04;42.54;98950.65;1707484;82;21054;-70
2021/08/15 15:58:11;;;;;;;20.92;4.60;;;;;;;30.03;42.96;98952.14;1681859;84;20968;-70
2021/08/15 16:00:40;;;;;;;9.50;4.20;;;;;;;30.01;43.10;98948.17;1700594;84;21491;-70
2021/08/15 16:03:08;;;;;;;6.15;3.92;;;;;;;30.00;43.74;98953.75;1701448;84;21130;-69
2021/08/15 16:05:36;;;;;;;7.25;4.22;;;;;;;29.97;44.06;98954.02;1701646;84;20978;-70
2021/08/15 16:08:05;;;;;;;6.00;3.77;;;;;;;29.94;44.30;98953.80;1701926;84;21017;-70
2021/08/15 16:10:35;;;;;;;11.35;4.30;;;;;;;29.93;44.75;98950.72;1697824;84;21013;-70
2021/08/15 16:13:04;;;;;;;9.10;3.90;;;;;;;29.92;44.75;98946.77;1698785;84;21049;-70
2021/08/15 16:15:35;;;;;;;6.28;4.08;;;;;;;30.03;45.15;98950.29;1701107;84;21630;-70
2021/08/15 16:18:05;;;;;;;8.10;4.15;;;;;;;30.46;45.63;98947.80;1700984;84;21140;-70
2021/08/15 16:20:33;;;;;;;6.80;4.83;;;;;;;30.99;45.45;98954.30;1700686;84;21434;-69
2021/08/15 16:23:02;;;;;;;8.33;4.30;;;;;;;31.44;43.85;98953.74;1701350;82;21147;-70
2021/08/15 16:25:30;;;;;;;8.08;4.87;;;;;;;31.59;44.06;98959.09;1701705;83;20923;-69
2021/08/15 16:28:00;;;;;;;11.38;4.72;;;;;;;31.53;44.29;98951.50;1714969;83;21402;-71
2021/08/15 16:30:28;;;;;;;9.93;4.50;;;;;;;31.38;45.39;98954.33;1728184;83;21429;-71
2021/08/15 16:32:56;;;;;;;15.35;4.83;;;;;;;31.17;45.88;98951.23;1690746;84;21466;-64